Time;durP1;ratioP1;P1;durP2;ratioP2;P2;SDS_P1;SDS_P2;PMS_P1;PMS_P2;Temp;Humidity;BMP_temperature;BMP_pressure;BME280_temperature;BME280_humidity;BME280_pressure;Samples;Min_cycle;Max_cycle;Signal;HPM_P1;HPM_P2
2022/01/23 00:01:49;;;;;;;16.92;9.95;;;;;;;6.05;100.00;103677.78;5078591;28;20431;-80
2022/01/23 00:04:15;;;;;;;16.90;8.80;;;;;;;6.06;100.00;103670.09;5093069;28;20028;-81
2022/01/23 00:06:40;;;;;;;21.83;9.25;;;;;;;6.08;100.00;103672.81;5074755;28;20031;-80
2022/01/23 00:09:05;;;;;;;16.27;8.52;;;;;;;6.08;100.00;103673.72;5077222;28;20036;-80
2022/01/23 00:11:35;;;;;;;21.30;9.95;;;;;;;6.07;100.00;103666.66;5082863;28;20031;-80
2022/01/23 00:19:13;;;;;;;23.67;10.50;;;;;;;6.05;100.00;103669.94;5101271;28;20073;-81
2022/01/23 00:21:40;;;;;;;19.70;9.35;;;;;;;6.05;100.00;103663.03;5093427;28;20028;-80
2022/01/23 00:32:02;;;;;;;18.73;8.88;;;;;;;6.10;100.00;103659.88;5097072;28;20046;-80
2022/01/23 00:34:27;;;;;;;19.52;8.77;;;;;;;6.09;100.00;103658.97;5103591;28;20027;-81
2022/01/23 00:36:52;;;;;;;17.20;9.05;;;;;;;6.07;100.00;103661.44;5096429;28;20035;-79
2022/01/23 00:39:18;;;;;;;17.77;9.38;;;;;;;6.05;100.00;103657.78;5080743;28;20032;-79
2022/01/23 00:41:43;;;;;;;13.95;9.13;;;;;;;6.08;100.00;103660.66;5101040;28;20030;-80
2022/01/23 00:44:08;;;;;;;19.13;8.77;;;;;;;6.07;100.00;103660.53;5102840;28;20142;-80
2022/01/23 00:46:36;;;;;;;17.00;8.95;;;;;;;6.07;100.00;103652.69;5101945;28;20119;-81
2022/01/23 00:51:34;;;;;;;19.10;9.32;;;;;;;6.04;100.00;103645.50;5104568;28;20490;-80
2022/01/23 00:54:02;;;;;;;17.65;9.20;;;;;;;6.04;100.00;103645.50;5085237;28;20505;-80
2022/01/23 00:56:28;;;;;;;16.27;8.20;;;;;;;6.03;100.00;103642.78;5079558;28;20498;-80
2022/01/23 00:58:53;;;;;;;18.92;9.05;;;;;;;6.03;100.00;103645.38;5100969;28;20106;-81
2022/01/23 01:01:20;;;;;;;18.40;9.30;;;;;;;6.00;100.00;103643.44;5102172;28;20035;-80
2022/01/23 01:03:45;;;;;;;18.23;9.32;;;;;;;6.00;100.00;103650.38;5098765;28;20020;-80
2022/01/23 01:06:12;;;;;;;20.05;9.75;;;;;;;5.98;100.00;103644.09;5100556;28;20039;-81
2022/01/23 01:08:39;;;;;;;20.33;9.90;;;;;;;5.97;100.00;103648.38;5101499;28;20020;-81
2022/01/23 01:11:37;;;;;;;16.33;9.88;;;;;;;5.99;100.00;103646.81;5101123;28;20035;-80
2022/01/23 01:16:53;;;;;;;18.92;9.43;;;;;;;6.00;100.00;103632.97;5108070;28;20043;-81
2022/01/23 01:30:33;;;;;;;15.45;9.63;;;;;;;5.96;100.00;103662.25;5095971;28;20035;-81
2022/01/23 01:33:21;;;;;;;20.00;11.00;;;;;;;5.98;100.00;103660.72;5102764;28;20383;-80
2022/01/23 01:36:04;;;;;;;17.98;9.55;;;;;;;5.99;100.00;103662.50;5106965;28;20059;-80
2022/01/23 01:38:31;;;;;;;19.37;9.20;;;;;;;6.02;100.00;103656.63;5095610;28;20426;-80
2022/01/23 01:40:56;;;;;;;18.15;9.52;;;;;;;6.03;100.00;103655.84;5077330;28;20054;-80
2022/01/23 01:43:21;;;;;;;20.48;9.60;;;;;;;6.03;100.00;103656.75;5084382;28;20035;-80
2022/01/23 01:45:47;;;;;;;22.02;9.88;;;;;;;6.02;100.00;103656.63;5095580;28;20031;-79
2022/01/23 01:48:15;;;;;;;19.38;9.57;;;;;;;6.03;100.00;103658.47;5099992;27;20131;-79
2022/01/23 01:50:46;;;;;;;18.13;9.77;;;;;;;6.03;100.00;103666.28;5084122;28;20479;-79
2022/01/23 01:53:12;;;;;;;21.73;9.50;;;;;;;6.02;100.00;103668.00;5110697;28;20030;-79
2022/01/23 01:55:43;;;;;;;15.18;9.38;;;;;;;6.01;100.00;103666.19;5082404;28;20077;-79
2022/01/23 01:58:32;;;;;;;20.20;9.68;;;;;;;6.02;100.00;103669.69;5077209;28;20065;-79
2022/01/23 02:00:58;;;;;;;18.02;9.10;;;;;;;6.03;100.00;103675.03;5094623;28;20036;-81
2022/01/23 02:08:46;;;;;;;17.60;10.02;;;;;;;6.02;100.00;103668.00;5102625;28;21501;-80
2022/01/23 02:11:14;;;;;;;21.02;9.32;;;;;;;5.99;100.00;103665.13;5084302;28;20032;-80
2022/01/23 02:13:47;;;;;;;18.08;9.68;;;;;;;5.98;100.00;103665.94;5081100;28;20095;-79
2022/01/23 02:56:51;;;;;;;19.88;9.50;;;;;;;5.99;100.00;103638.09;5075065;28;20541;-81
2022/01/23 02:59:27;;;;;;;25.55;9.63;;;;;;;5.96;100.00;103636.09;5075386;28;20464;-81
2022/01/23 03:04:30;;;;;;;18.55;9.90;;;;;;;5.98;100.00;103624.13;5076948;28;20581;-80
2022/01/23 03:07:12;;;;;;;18.40;9.30;;;;;;;6.00;100.00;103617.28;5081635;28;20038;-82
2022/01/23 03:29:02;;;;;;;20.58;9.57;;;;;;;5.97;100.00;103627.47;5095617;28;20062;-79
2022/01/23 03:31:30;;;;;;;23.98;9.52;;;;;;;5.96;100.00;103625.66;5094888;28;20039;-81
2022/01/23 03:33:56;;;;;;;17.35;9.63;;;;;;;5.93;100.00;103630.63;5083979;28;20032;-80
2022/01/23 03:36:22;;;;;;;23.02;10.20;;;;;;;5.90;100.00;103628.69;5094299;28;20081;-81
2022/01/23 03:38:47;;;;;;;23.38;10.02;;;;;;;5.88;100.00;103632.84;5092352;28;20019;-80
2022/01/23 03:41:13;;;;;;;20.27;9.95;;;;;;;5.87;100.00;103641.50;5078049;28;20027;-81
2022/01/23 03:43:40;;;;;;;20.23;10.63;;;;;;;5.89;100.00;103641.63;5093426;28;20051;-79
2022/01/23 03:46:35;;;;;;;21.80;10.35;;;;;;;5.89;100.00;103634.69;5099779;28;20064;-80
2022/01/23 03:51:45;;;;;;;24.67;10.15;;;;;;;5.89;100.00;103639.03;5100583;28;20048;-79
2022/01/23 03:54:10;;;;;;;28.65;11.07;;;;;;;5.87;100.00;103638.91;5079325;28;20028;-79
2022/01/23 03:56:36;;;;;;;20.10;10.07;;;;;;;5.85;100.00;103647.41;5097524;28;20099;-80
2022/01/23 03:59:01;;;;;;;23.55;10.70;;;;;;;5.84;100.00;103646.47;5097559;28;20024;-79
2022/01/23 04:01:26;;;;;;;21.35;12.20;;;;;;;5.83;100.00;103641.13;5101680;28;20103;-80
2022/01/23 04:03:55;;;;;;;26.42;13.60;;;;;;;5.82;100.00;103648.06;5102090;28;20024;-80
2022/01/23 04:06:21;;;;;;;25.73;11.35;;;;;;;5.80;100.00;103638.28;5094114;28;20062;-80
2022/01/23 04:08:47;;;;;;;23.17;10.75;;;;;;;5.77;100.00;103638.94;5084683;28;20417;-81
2022/01/23 04:11:13;;;;;;;22.38;10.73;;;;;;;5.76;100.00;103641.41;5111645;28;20023;-79
2022/01/23 04:14:14;;;;;;;19.40;10.48;;;;;;;5.77;100.00;103643.25;5101765;28;20034;-79
2022/01/23 04:19:11;;;;;;;26.33;10.95;;;;;;;5.78;100.00;103645.06;5098353;28;20035;-81
2022/01/23 04:46:14;;;;;;;25.27;11.40;;;;;;;5.67;100.00;103658.16;5097944;28;20045;-81
2022/01/23 04:59:32;;;;;;;18.10;11.00;;;;;;;5.67;100.00;103655.56;5080446;28;20063;-81
2022/01/23 04:59:55;;;;;;;;;;;;;;;5.64;100.00;103652.66;5107145;28;20066;-81
2022/01/23 05:04:50;;;;;;;28.92;11.77;;;;;;;5.61;100.00;103659.38;5102063;28;20071;-80
2022/01/23 05:07:17;;;;;;;20.23;11.50;;;;;;;5.61;100.00;103660.25;5103816;28;20028;-79
2022/01/23 05:09:42;;;;;;;23.60;12.02;;;;;;;5.60;100.00;103661.03;5087680;28;20024;-81
2022/01/23 05:12:11;;;;;;;29.02;12.55;;;;;;;5.61;100.00;103659.38;5081256;28;20089;-79
2022/01/23 05:14:42;;;;;;;20.17;12.07;;;;;;;5.60;100.00;103655.81;5101254;28;20024;-79
2022/01/23 05:17:11;;;;;;;21.75;11.43;;;;;;;5.58;100.00;103657.41;5086747;28;20023;-79
2022/01/23 05:19:38;;;;;;;26.25;13.13;;;;;;;5.58;100.00;103657.41;5100586;27;20020;-80
2022/01/23 05:24:39;;;;;;;28.30;13.15;;;;;;;5.58;100.00;103658.31;5102372;28;20043;-79
2022/01/23 05:27:10;;;;;;;24.95;12.00;;;;;;;5.58;100.00;103654.81;5098839;28;20111;-81
2022/01/23 05:29:36;;;;;;;24.08;12.98;;;;;;;5.58;100.00;103652.19;5096282;28;20046;-80
2022/01/23 05:32:04;;;;;;;25.45;12.70;;;;;;;5.57;100.00;103655.56;5084929;28;20399;-81
2022/01/23 05:34:30;;;;;;;20.40;11.75;;;;;;;5.57;100.00;103652.97;5103877;28;20084;-79
2022/01/23 05:36:56;;;;;;;25.35;11.68;;;;;;;5.56;100.00;103651.13;5081855;28;20110;-80
2022/01/23 05:39:24;;;;;;;33.65;13.18;;;;;;;5.55;100.00;103651.94;5106505;28;20027;-80
2022/01/23 05:41:54;;;;;;;31.02;12.57;;;;;;;5.54;100.00;103650.09;5097504;28;20023;-80
2022/01/23 05:44:19;;;;;;;22.70;13.40;;;;;;;5.54;100.00;103651.00;5110227;28;20572;-81
2022/01/23 05:46:45;;;;;;;29.58;13.15;;;;;;;5.55;100.00;103657.16;5085270;28;20048;-80
2022/01/23 05:49:10;;;;;;;21.65;12.77;;;;;;;5.55;100.00;103652.84;5082145;28;20471;-80
2022/01/23 05:51:35;;;;;;;29.30;12.93;;;;;;;5.56;100.00;103654.69;5100329;28;20040;-80
2022/01/23 05:54:01;;;;;;;29.25;12.50;;;;;;;5.56;100.00;103653.75;5095343;28;20399;-80
2022/01/23 05:56:27;;;;;;;24.92;12.88;;;;;;;5.56;100.00;103657.28;5081728;28;20055;-80
2022/01/23 05:58:53;;;;;;;29.60;13.43;;;;;;;5.56;100.00;103653.75;5095623;28;20020;-80
2022/01/23 06:01:19;;;;;;;24.65;12.80;;;;;;;5.55;100.00;103651.94;5088195;28;20031;-80
2022/01/23 06:03:44;;;;;;;28.63;11.88;;;;;;;5.55;100.00;103646.72;5100015;28;20035;-81
2022/01/23 06:06:09;;;;;;;26.88;12.40;;;;;;;5.53;100.00;103638.72;5095689;28;20023;-79
2022/01/23 06:08:35;;;;;;;30.75;15.63;;;;;;;5.53;100.00;103648.28;5085349;28;20030;-79
2022/01/23 06:11:00;;;;;;;32.90;15.23;;;;;;;5.53;100.00;103643.06;5079341;28;20054;-79
2022/01/23 06:13:27;;;;;;;40.55;17.00;;;;;;;5.53;100.00;103637.81;5070673;28;20024;-79
2022/01/23 06:15:54;;;;;;;39.95;16.85;;;;;;;5.52;100.00;103642.16;5095251;28;20472;-79
2022/01/23 06:18:20;;;;;;;37.53;15.30;;;;;;;5.54;100.00;103637.06;5098479;28;20464;-79
2022/01/23 06:20:46;;;;;;;28.85;13.77;;;;;;;5.52;100.00;103646.44;5079242;28;20036;-80
2022/01/23 06:23:12;;;;;;;29.40;12.95;;;;;;;5.52;100.00;103633.38;5095881;28;20028;-80
2022/01/23 06:25:41;;;;;;;24.92;14.05;;;;;;;5.51;100.00;103640.31;5106713;28;20475;-79
2022/01/23 06:28:07;;;;;;;27.92;13.52;;;;;;;5.52;100.00;103643.81;5108262;28;20092;-80
2022/01/23 06:30:33;;;;;;;30.27;13.02;;;;;;;5.52;100.00;103641.22;5110350;28;20471;-80
2022/01/23 06:33:00;;;;;;;24.88;13.25;;;;;;;5.53;100.00;103643.94;5076664;28;20027;-80
2022/01/23 06:35:25;;;;;;;28.88;13.45;;;;;;;5.53;100.00;103645.66;5081730;28;20024;-80
2022/01/23 06:37:50;;;;;;;29.65;14.02;;;;;;;5.54;100.00;103652.72;5085182;28;20046;-80
2022/01/23 06:40:16;;;;;;;30.95;13.75;;;;;;;5.52;100.00;103647.38;5078285;28;20036;-80
2022/01/23 06:42:41;;;;;;;33.05;16.35;;;;;;;5.53;100.00;103658.72;5102050;28;20070;-80
2022/01/23 06:45:07;;;;;;;37.67;16.42;;;;;;;5.53;100.00;103658.72;5075451;28;20031;-80
2022/01/23 06:47:32;;;;;;;29.95;14.65;;;;;;;5.53;100.00;103663.94;5076009;28;20047;-80
2022/01/23 06:49:59;;;;;;;28.00;15.68;;;;;;;5.53;100.00;103667.47;5094309;28;20082;-80
2022/01/23 06:52:24;;;;;;;37.80;14.60;;;;;;;5.52;100.00;103669.94;5099732;28;20052;-80
2022/01/23 06:54:49;;;;;;;30.73;15.68;;;;;;;5.53;100.00;103669.16;5081119;28;20051;-80
2022/01/23 06:57:15;;;;;;;29.90;15.60;;;;;;;5.53;100.00;103669.16;5095272;28;20027;-80
2022/01/23 06:59:40;;;;;;;35.38;15.65;;;;;;;5.51;100.00;103674.28;5093594;28;20026;-79
2022/01/23 07:02:06;;;;;;;35.42;14.93;;;;;;;5.51;100.00;103674.28;5104264;28;20063;-79
2022/01/23 07:04:31;;;;;;;25.77;14.43;;;;;;;5.52;100.00;103683.00;5101910;28;20130;-79
2022/01/23 07:06:57;;;;;;;34.75;15.93;;;;;;;5.50;100.00;103680.28;5079975;28;20097;-81
2022/01/23 07:09:23;;;;;;;34.60;15.70;;;;;;;5.49;100.00;103680.16;5080634;28;20497;-79
2022/01/23 07:11:48;;;;;;;37.63;14.68;;;;;;;5.48;100.00;103680.94;5084361;28;20020;-80
2022/01/23 07:14:13;;;;;;;36.00;14.98;;;;;;;5.47;100.00;103681.75;5104518;28;20077;-79
2022/01/23 07:16:39;;;;;;;29.55;15.65;;;;;;;5.45;100.00;103692.03;5107829;28;20024;-79
2022/01/23 07:19:04;;;;;;;35.58;15.48;;;;;;;5.45;100.00;103683.28;5102693;28;20032;-79
2022/01/23 07:21:29;;;;;;;30.10;15.35;;;;;;;5.46;100.00;103687.72;5085516;28;20028;-80
2022/01/23 07:23:55;;;;;;;33.40;15.82;;;;;;;5.45;100.00;103685.91;5100655;28;20484;-80
2022/01/23 07:26:23;;;;;;;32.75;14.90;;;;;;;5.45;100.00;103683.28;5099992;28;20027;-80
2022/01/23 07:28:50;;;;;;;29.75;15.38;;;;;;;5.44;100.00;103689.28;5104495;28;20608;-80
2022/01/23 07:34:01;;;;;;;33.83;15.60;;;;;;;5.40;100.00;103696.88;5104504;28;20028;-81
2022/01/23 07:36:26;;;;;;;30.33;15.13;;;;;;;5.42;100.00;103702.22;5099016;28;20039;-80
2022/01/23 07:38:51;;;;;;;32.20;16.02;;;;;;;5.42;100.00;103709.16;5095702;28;20511;-80
2022/01/23 07:41:17;;;;;;;32.60;14.93;;;;;;;5.42;100.00;103712.66;5085780;28;20016;-80
2022/01/23 07:43:42;;;;;;;27.83;15.18;;;;;;;5.42;100.00;103712.66;5106007;28;20028;-78
2022/01/23 07:46:07;;;;;;;36.40;15.95;;;;;;;5.42;100.00;103714.38;5097311;28;20034;-77
2022/01/23 07:48:33;;;;;;;37.50;15.73;;;;;;;5.42;100.00;103720.50;5087292;28;20023;-78
2022/01/23 07:50:58;;;;;;;39.47;16.60;;;;;;;5.43;100.00;103719.72;5088403;28;20116;-80
2022/01/23 07:53:23;;;;;;;38.15;16.10;;;;;;;5.43;100.00;103727.56;5065464;28;20032;-76
2022/01/23 07:55:49;;;;;;;42.55;16.77;;;;;;;5.43;100.00;103724.06;5077929;28;20040;-75
2022/01/23 07:58:15;;;;;;;36.90;17.08;;;;;;;5.44;100.00;103729.41;5081116;28;20457;-75
2022/01/23 08:00:42;;;;;;;46.88;19.75;;;;;;;5.48;100.00;103730.53;5086455;28;20024;-75
2022/01/23 08:03:09;;;;;;;44.55;19.33;;;;;;;5.50;100.00;103731.59;5087393;28;20028;-75
2022/01/23 08:05:35;;;;;;;44.03;19.75;;;;;;;5.53;100.00;103734.47;5086911;28;20107;-75
2022/01/23 08:08:00;;;;;;;51.05;19.25;;;;;;;5.54;100.00;103734.59;5063131;28;20038;-75
2022/01/23 08:10:25;;;;;;;41.15;19.27;;;;;;;5.57;100.00;103731.31;5083929;28;20476;-76
2022/01/23 08:12:51;;;;;;;34.72;18.50;;;;;;;5.57;100.00;103723.50;5087170;28;20025;-75
2022/01/23 08:15:16;;;;;;;48.20;20.35;;;;;;;5.58;100.00;103741.00;5088413;28;20051;-76
2022/01/23 08:17:42;;;;;;;40.35;18.75;;;;;;;5.58;100.00;103730.53;5085188;28;20054;-75
2022/01/23 08:20:08;;;;;;;38.22;18.83;;;;;;;5.58;100.00;103735.78;5061246;28;20024;-73
2022/01/23 08:22:33;;;;;;;48.08;20.60;;;;;;;5.58;100.00;103733.16;5059308;28;20032;-75
2022/01/23 08:25:01;;;;;;;42.10;19.88;;;;;;;5.61;100.00;103740.34;5078396;28;20481;-77
2022/01/23 08:27:28;;;;;;;38.75;20.02;;;;;;;5.61;100.00;103743.84;5085827;28;20079;-77
2022/01/23 08:29:53;;;;;;;46.35;21.25;;;;;;;5.64;100.00;103746.72;5069872;28;20476;-76
2022/01/23 08:32:19;;;;;;;40.40;20.98;;;;;;;5.64;100.00;103744.09;5065622;28;20027;-78
2022/01/23 08:34:45;;;;;;;46.05;21.17;;;;;;;5.67;100.00;103741.78;5091072;28;20034;-78
2022/01/23 08:37:11;;;;;;;42.22;19.85;;;;;;;5.70;100.00;103752.47;5066263;28;20029;-79
2022/01/23 08:39:38;;;;;;;36.65;20.00;;;;;;;5.72;100.00;103744.75;5062914;28;20032;-80
2022/01/23 08:42:08;;;;;;;40.28;21.05;;;;;;;5.74;100.00;103737.97;5083651;28;20123;-79
2022/01/23 08:44:34;;;;;;;54.20;23.33;;;;;;;5.77;100.00;103742.53;5071346;28;20085;-79
2022/01/23 08:47:01;;;;;;;48.53;21.90;;;;;;;5.78;100.00;103744.34;5096153;28;20044;-79
2022/01/23 08:49:29;;;;;;;43.60;21.52;;;;;;;5.81;100.00;103747.22;5084687;28;20028;-79
2022/01/23 08:51:55;;;;;;;38.25;21.58;;;;;;;5.83;100.00;103753.47;5085289;28;20024;-80
2022/01/23 08:54:24;;;;;;;38.88;20.02;;;;;;;5.85;100.00;103747.59;5084325;28;20036;-81
2022/01/23 08:56:49;;;;;;;42.70;20.42;;;;;;;5.88;100.00;103740.00;5107369;28;20076;-79
2022/01/23 08:59:15;;;;;;;42.90;21.15;;;;;;;5.91;100.00;103739.34;5105009;28;20019;-82
2022/01/23 09:01:40;;;;;;;44.90;21.02;;;;;;;5.95;100.00;103744.03;5090685;28;20028;-80
2022/01/23 09:04:07;;;;;;;42.60;22.50;;;;;;;5.98;100.00;103744.34;5105029;28;20043;-80
2022/01/23 09:06:33;;;;;;;46.70;22.75;;;;;;;6.02;100.00;103743.81;5086452;28;20118;-79
2022/01/23 09:09:00;;;;;;;54.17;23.67;;;;;;;6.06;100.00;103742.34;5104166;28;20047;-80
2022/01/23 09:11:38;;;;;;;41.50;20.90;;;;;;;6.09;100.00;103742.63;5106555;28;20531;-78
2022/01/23 09:14:06;;;;;;;38.90;20.90;;;;;;;6.12;100.00;103734.09;5100415;28;20031;-80
2022/01/23 09:16:40;;;;;;;42.83;20.92;;;;;;;6.15;100.00;103742.19;5086411;28;20032;-79
2022/01/23 09:19:07;;;;;;;41.97;20.77;;;;;;;6.18;100.00;103743.34;5084585;28;20426;-79
2022/01/23 09:21:37;;;;;;;51.05;21.70;;;;;;;6.22;100.00;103742.81;5100088;28;20502;-78
2022/01/23 09:24:03;;;;;;;38.58;21.23;;;;;;;6.27;100.00;103753.66;5081224;28;20051;-79
2022/01/23 09:26:29;;;;;;;44.65;22.73;;;;;;;6.30;100.00;103753.00;5085316;28;20048;-79
2022/01/23 09:28:57;;;;;;;40.63;21.75;;;;;;;6.33;100.00;103743.66;5079270;28;20028;-78
2022/01/23 09:31:30;;;;;;;40.53;21.55;;;;;;;6.37;100.00;103743.13;5092636;28;20038;-80
2022/01/23 09:33:56;;;;;;;43.65;20.38;;;;;;;6.40;100.00;103750.31;5082645;28;20459;-80
2022/01/23 09:36:21;;;;;;;45.00;22.15;;;;;;;6.44;100.00;103746.25;5102710;28;20031;-79
2022/01/23 09:38:46;;;;;;;45.28;21.95;;;;;;;6.48;100.00;103758.78;5096464;28;20024;-78
2022/01/23 09:41:17;;;;;;;35.72;20.17;;;;;;;6.50;100.00;103752.00;5100263;28;20122;-79
2022/01/23 09:43:43;;;;;;;39.15;21.00;;;;;;;6.53;100.00;103762.69;5103307;28;20024;-79
2022/01/23 09:46:09;;;;;;;37.72;19.13;;;;;;;6.60;100.00;103759.75;5105045;28;20035;-79
2022/01/23 09:48:36;;;;;;;39.00;20.60;;;;;;;6.61;100.00;103761.59;5103037;28;20028;-82
2022/01/23 09:51:03;;;;;;;36.70;20.17;;;;;;;6.61;100.00;103766.84;5079991;28;20020;-80
2022/01/23 09:53:30;;;;;;;45.28;21.48;;;;;;;6.63;100.00;103767.84;5109640;28;20036;-81
2022/01/23 09:56:02;;;;;;;39.83;20.80;;;;;;;6.69;100.00;103767.47;5082825;28;20036;-79
2022/01/23 09:58:28;;;;;;;35.28;20.00;;;;;;;6.71;100.00;103765.84;5108602;28;20386;-81
2022/01/23 10:00:54;;;;;;;33.55;19.92;;;;;;;6.77;100.00;103768.03;5092054;28;20019;-79
2022/01/23 10:03:20;;;;;;;37.35;20.08;;;;;;;6.79;100.00;103769.09;5098086;28;20044;-80
2022/01/23 10:05:50;;;;;;;35.38;18.60;;;;;;;6.82;100.00;103761.47;5101646;28;20031;-80
2022/01/23 10:08:16;;;;;;;40.05;19.67;;;;;;;6.87;100.00;103770.59;5076925;28;20039;-80
2022/01/23 10:10:42;;;;;;;37.03;19.70;;;;;;;6.86;100.00;103764.47;5083343;28;20023;-82
2022/01/23 10:13:08;;;;;;;36.28;18.63;;;;;;;6.92;100.00;103764.03;5103381;28;20028;-81
2022/01/23 10:15:36;;;;;;;30.98;18.23;;;;;;;6.96;100.00;103765.16;5081468;28;20028;-80
2022/01/23 10:18:02;;;;;;;28.98;19.02;;;;;;;6.96;100.00;103767.78;5103401;28;20028;-81
2022/01/23 10:20:28;;;;;;;31.30;18.25;;;;;;;7.02;100.00;103766.56;5082814;28;20106;-80
2022/01/23 10:22:55;;;;;;;30.73;18.00;;;;;;;7.06;100.00;103762.50;5101821;28;20515;-81
2022/01/23 10:25:23;;;;;;;32.80;17.27;;;;;;;7.10;100.00;103759.31;5082845;28;20035;-80
2022/01/23 10:28:05;;;;;;;27.80;16.70;;;;;;;7.09;100.00;103761.03;5080796;28;20028;-80
2022/01/23 10:30:46;;;;;;;29.73;18.98;;;;;;;7.12;100.00;103762.06;5078861;28;20464;-81
2022/01/23 10:33:33;;;;;;;26.90;15.82;;;;;;;7.16;100.00;103759.81;5076314;28;20020;-79
2022/01/23 10:36:04;;;;;;;27.50;15.70;;;;;;;7.21;100.00;103757.53;5099219;28;20324;-79
2022/01/23 10:38:30;;;;;;;25.50;16.02;;;;;;;7.24;100.00;103757.75;5078165;28;20337;-79
2022/01/23 10:41:06;;;;;;;26.58;16.27;;;;;;;7.28;100.00;103758.94;5081201;28;20074;-81
2022/01/23 10:49:00;;;;;;;28.90;16.42;;;;;;;7.32;100.00;103746.16;5103449;28;20019;-80
2022/01/23 10:51:36;;;;;;;30.98;15.48;;;;;;;7.32;100.00;103748.78;5096597;28;20028;-79
2022/01/23 10:54:20;;;;;;;30.15;16.23;;;;;;;7.37;100.00;103750.06;5085861;28;20015;-80
2022/01/23 10:57:06;;;;;;;23.90;14.35;;;;;;;7.38;100.00;103745.72;5080674;28;20032;-80
2022/01/23 10:59:49;;;;;;;25.80;15.20;;;;;;;7.40;100.00;103738.91;5106466;28;20074;-79
2022/01/23 11:02:25;;;;;;;29.75;16.13;;;;;;;7.41;100.00;103749.50;5105527;28;20044;-80
2022/01/23 11:05:01;;;;;;;27.05;15.00;;;;;;;7.42;100.00;103740.84;5097236;28;20028;-80
2022/01/23 11:07:29;;;;;;;24.33;14.00;;;;;;;7.44;100.00;103738.34;5100531;28;20032;-78
2022/01/23 11:09:56;;;;;;;25.92;14.38;;;;;;;7.52;100.00;103738.94;5083711;28;20374;-81
2022/01/23 11:17:59;;;;;;;24.33;13.02;;;;;;;7.48;100.00;103731.66;5095412;28;20047;-79
2022/01/23 11:20:32;;;;;;;27.23;13.52;;;;;;;7.45;100.00;103736.63;5085637;28;20023;-81
2022/01/23 11:23:27;;;;;;;26.90;14.87;;;;;;;7.47;100.00;103724.56;5101039;28;20024;-79
2022/01/23 11:25:52;;;;;;;23.10;13.73;;;;;;;7.43;100.00;103724.34;5078363;28;20044;-79
2022/01/23 11:28:18;;;;;;;24.02;13.98;;;;;;;7.43;100.00;103726.03;5103463;28;20547;-79
2022/01/23 11:30:46;;;;;;;24.02;14.80;;;;;;;7.45;100.00;103718.28;5083349;28;20031;-79
2022/01/23 11:33:17;;;;;;;24.40;14.35;;;;;;;7.51;100.00;103716.13;5098931;28;20031;-79
2022/01/23 11:35:43;;;;;;;21.50;12.40;;;;;;;7.50;100.00;103710.00;5102474;28;20039;-77
2022/01/23 11:38:17;;;;;;;22.67;13.60;;;;;;;7.57;100.00;103716.63;5094554;28;20424;-78
2022/01/23 11:54:40;;;;;;;21.38;12.80;;;;;;;7.61;100.00;103705.56;5098583;28;20111;-76
2022/01/23 11:57:37;;;;;;;17.88;11.23;;;;;;;7.66;100.00;103705.91;5095657;28;20032;-75
2022/01/23 12:00:28;;;;;;;19.92;12.30;;;;;;;7.70;100.00;103703.59;5102137;28;20028;-76
2022/01/23 12:03:15;;;;;;;18.83;12.55;;;;;;;7.74;100.00;103699.53;5087801;28;20161;-76
2022/01/23 12:05:44;;;;;;;19.45;11.30;;;;;;;7.71;99.81;103689.72;5102897;28;20034;-76
2022/01/23 12:08:20;;;;;;;18.63;9.38;;;;;;;7.71;97.77;103687.09;5084731;28;20031;-76
2022/01/23 12:11:24;;;;;;;16.20;10.30;;;;;;;7.76;97.93;103688.34;5078330;28;20042;-76
2022/01/23 12:17:12;;;;;;;20.77;10.38;;;;;;;7.79;97.40;103681.53;5103848;28;20050;-76
2022/01/23 12:19:44;;;;;;;17.48;10.88;;;;;;;7.79;97.70;103681.53;5087034;28;20036;-77
2022/01/23 12:22:54;;;;;;;19.50;11.07;;;;;;;7.85;98.34;103684.59;5101970;27;20028;-77
2022/01/23 12:25:26;;;;;;;18.40;11.73;;;;;;;7.84;98.92;103685.38;5047139;28;20037;-76
2022/01/23 12:28:28;;;;;;;15.93;10.77;;;;;;;7.77;96.74;103678.75;5031306;28;20028;-76
2022/01/23 12:31:15;;;;;;;18.35;10.27;;;;;;;7.75;96.75;103676.03;5076789;28;20071;-76
2022/01/23 12:33:45;;;;;;;17.75;10.95;;;;;;;7.80;96.71;103683.31;5101356;28;20475;-76
2022/01/23 12:36:16;;;;;;;15.55;10.35;;;;;;;7.77;95.25;103673.53;5108675;28;20036;-76
2022/01/23 12:38:46;;;;;;;15.27;9.85;;;;;;;7.74;95.49;103678.53;5106518;28;20023;-76
2022/01/23 12:41:23;;;;;;;27.25;11.52;;;;;;;7.78;95.72;103674.47;5108483;28;20112;-77
2022/01/23 12:43:53;;;;;;;20.45;12.05;;;;;;;7.70;96.38;103666.91;5109122;28;20535;-75
2022/01/23 12:46:29;;;;;;;17.73;12.45;;;;;;;7.80;96.31;103665.91;5089310;28;20028;-79
2022/01/23 12:48:55;;;;;;;19.52;12.68;;;;;;;7.82;96.78;103668.63;5101360;28;20463;-79
2022/01/23 12:51:21;;;;;;;22.80;14.23;;;;;;;7.84;97.44;103674.88;5098687;28;20032;-72
2022/01/23 12:53:46;;;;;;;22.38;13.60;;;;;;;7.79;96.75;103663.19;5102468;28;20036;-71
2022/01/23 12:56:17;;;;;;;25.80;12.95;;;;;;;7.69;96.65;103662.50;5099434;28;20099;-72
2022/01/23 12:58:50;;;;;;;19.40;11.70;;;;;;;7.64;96.44;103661.25;5089112;28;20027;-71
2022/01/23 13:01:24;;;;;;;26.55;12.95;;;;;;;7.65;97.17;103663.06;5107073;28;20365;-72
2022/01/23 13:03:54;;;;;;;24.02;14.45;;;;;;;7.71;97.96;103663.50;5107965;27;20046;-72
2022/01/23 13:06:30;;;;;;;22.65;13.85;;;;;;;7.72;98.46;103665.34;5099039;28;20030;-72
2022/01/23 13:18:05;;;;;;;19.58;11.55;;;;;;;7.80;95.30;103662.34;5105606;28;20395;-72
2022/01/23 13:32:19;;;;;;;17.33;11.68;;;;;;;7.63;94.46;103655.88;5103211;28;20104;-72
2022/01/23 13:34:59;;;;;;;18.60;12.30;;;;;;;7.62;95.03;103662.81;5099140;28;20439;-71
2022/01/23 13:37:27;;;;;;;18.38;11.10;;;;;;;7.68;94.70;103657.16;5104032;28;20031;-71
2022/01/23 13:40:05;;;;;;;18.25;12.07;;;;;;;7.65;94.88;103651.66;5105199;28;20539;-71
2022/01/23 13:42:49;;;;;;;18.90;11.05;;;;;;;7.58;94.82;103651.22;5103999;28;20106;-72
2022/01/23 13:59:43;;;;;;;19.42;11.40;;;;;;;7.53;93.06;103642.09;5101049;27;20043;-71
2022/01/23 14:02:16;;;;;;;19.05;11.25;;;;;;;7.53;93.59;103646.44;5099970;28;20031;-71
2022/01/23 14:05:11;;;;;;;19.75;12.07;;;;;;;7.52;93.79;103639.38;5111031;27;20047;-72
2022/01/23 14:07:38;;;;;;;16.77;11.95;;;;;;;7.48;94.55;103647.81;5108310;27;20020;-72
2022/01/23 14:10:20;;;;;;;18.23;12.27;;;;;;;7.53;95.08;103635.97;5084030;28;20020;-72
2022/01/23 14:12:48;;;;;;;22.08;13.30;;;;;;;7.40;94.32;103640.25;5100853;28;20084;-73
2022/01/23 14:15:16;;;;;;;20.48;12.52;;;;;;;7.45;95.02;103632.75;5098596;27;20484;-72
2022/01/23 14:17:54;;;;;;;16.80;11.43;;;;;;;7.45;94.68;103635.38;5100440;27;20077;-72
2022/01/23 14:20:20;;;;;;;17.08;12.15;;;;;;;7.50;94.06;103633.09;5070834;28;20045;-72
2022/01/23 14:22:47;;;;;;;16.42;11.45;;;;;;;7.54;93.67;103635.13;5105002;28;20167;-73
2022/01/23 14:25:25;;;;;;;18.65;11.23;;;;;;;7.40;91.31;103631.50;5082366;28;20023;-73
2022/01/23 14:28:11;;;;;;;19.80;11.27;;;;;;;7.40;90.78;103635.00;5086274;28;20063;-71
2022/01/23 14:30:48;;;;;;;18.50;12.27;;;;;;;7.36;90.74;103639.94;5099085;28;20667;-71
2022/01/23 14:33:22;;;;;;;19.55;12.30;;;;;;;7.34;90.84;103629.34;5080519;28;20034;-72
2022/01/23 14:35:48;;;;;;;20.92;13.23;;;;;;;7.30;91.09;103634.22;5100115;28;20090;-71
2022/01/23 14:38:21;;;;;;;17.77;12.90;;;;;;;7.31;91.95;103634.34;5098783;28;20653;-70
2022/01/23 14:41:06;;;;;;;21.52;14.43;;;;;;;7.31;91.67;103639.59;5099172;28;20467;-71
2022/01/23 14:43:39;;;;;;;21.05;13.65;;;;;;;7.27;91.65;103640.16;5101696;28;20032;-71
2022/01/23 14:46:10;;;;;;;18.55;13.27;;;;;;;7.26;91.95;103636.59;5102913;28;20498;-72
2022/01/23 14:48:46;;;;;;;26.42;14.27;;;;;;;7.23;92.09;103633.78;5097072;28;20028;-71
2022/01/23 14:51:18;;;;;;;20.52;14.88;;;;;;;7.19;92.24;103634.34;5102097;28;20023;-71